Search for airport 
image banner adimage banner adimage banner ad
image banner ad

KZER - Schuylkill County /Joe Zerbey

Located in Pottsville, United States

ICAO - ZER, IATA -

Data provided by Airmate  

General information

Coordinates: N40°42'24" W76°22'23"
Elevation is 1729 feet MSL.
Magnetic variation is -12° East
View others Airports in Pennsylvania

Operational data

Special qualification required
Current time UTC:
Current local time:
METAR: KMUI 291556Z 00000KT 6SM BR FEW010 SCT015 BKN021 OVC160 24/20 A2996 RMK AO2A SLP146 T02380201
TAF: TAF AMD KMUI 291535Z 2915/3017 15009KT 9000 BR FEW020 BKN025 QNH2989INS BECMG 2917/2918 20009KT 9000 -SHRA BKN015 BKN030 QNH2969INS TEMPO 2918/2924 33020G35KT 6000 TSRA OVC025CB BECMG 3000/3001 16006KT 8000 -SHRA SCT020 OVC050 QNH2967INS BECMG 3008/3009 24006KT 9000 BR SCT015 OVC020 QNH2971INS BECMG 3013/3014 30012G20KT 9999 NSW SCT025 QNH2980INS TX27/2920Z TN19/2915Z
View NOTAMs / SUP AIP / TFR affecting this airport [VIEW]
Communications frequencies: [VIEW]

Runways:

RWY identifierQFULength (ft)Width (ft)SurfaceLDA (ft)
0431°2523140GRASS
22211°2523140GRASS
1198°459975ASPH
29278°459975ASPH

Airport contact information

Address: Pottsville United States

Satellite view of KZER